createdAt,value
2023-03-17T00:01:13.182Z,6.84
2023-03-17T00:02:08.010Z,6.86
2023-03-17T00:03:06.002Z,6.88
2023-03-17T00:03:49.056Z,7.01
2023-03-17T00:04:30.124Z,6.90
2023-03-17T00:05:28.962Z,7.06
2023-03-17T00:06:09.307Z,7.01
2023-03-17T00:06:49.964Z,6.86
2023-03-17T00:07:31.944Z,6.96
2023-03-17T00:08:26.942Z,6.87
2023-03-17T00:09:07.987Z,6.90
2023-03-17T00:09:42.068Z,7.04
2023-03-17T00:10:32.296Z,7.15
2023-03-17T00:11:07.530Z,6.91
2023-03-17T00:11:55.996Z,7.05
2023-03-17T00:12:30.129Z,6.94
2023-03-17T00:13:18.955Z,7.11
2023-03-17T00:13:53.070Z,7.13
2023-03-17T00:14:34.019Z,6.94
2023-03-17T00:15:17.736Z,6.89
2023-03-17T00:16:06.977Z,6.97
2023-03-17T00:16:52.569Z,6.90
2023-03-17T00:17:33.954Z,6.80
2023-03-17T00:18:22.572Z,6.89
2023-03-17T00:19:04.940Z,6.87
2023-03-17T00:19:54.016Z,6.92
2023-03-17T00:20:47.953Z,6.70
2023-03-17T00:21:46.965Z,6.85
2023-03-17T00:22:40.945Z,6.93
2023-03-17T00:23:36.943Z,7.03
2023-03-17T00:24:30.961Z,7.18
2023-03-17T00:25:40.951Z,6.91
2023-03-17T00:26:17.054Z,7.13
2023-03-17T00:27:04.959Z,7.05
2023-03-17T00:27:39.192Z,6.91
2023-03-17T00:28:29.933Z,6.92
2023-03-17T00:29:05.501Z,6.98
2023-03-17T00:29:53.924Z,6.79
2023-03-17T00:30:29.393Z,6.95
2023-03-17T00:31:23.086Z,6.76
2023-03-17T00:32:05.077Z,6.78
2023-03-17T00:32:45.944Z,6.89
2023-03-17T00:33:27.089Z,6.88
2023-03-17T00:34:08.102Z,6.81
2023-03-17T00:34:48.026Z,6.96
2023-03-17T00:35:35.980Z,6.84
2023-03-17T00:36:36.009Z,6.94
2023-03-17T00:37:29.911Z,6.78
2023-03-17T00:38:30.907Z,6.96
2023-03-17T00:39:27.921Z,6.71
2023-03-17T00:40:35.919Z,6.97
2023-03-17T00:41:29.942Z,6.79
2023-03-17T00:42:10.952Z,6.90
2023-03-17T00:42:52.219Z,6.78
2023-03-17T00:43:32.913Z,6.88
2023-03-17T00:44:14.501Z,6.94
2023-03-17T00:44:55.895Z,6.84
2023-03-17T00:45:36.049Z,6.67
2023-03-17T00:46:29.952Z,6.85
2023-03-17T00:47:10.038Z,6.94
2023-03-17T00:47:51.931Z,6.94
2023-03-17T00:48:34.006Z,6.95
2023-03-17T00:49:29.922Z,6.73
2023-03-17T00:50:11.491Z,6.94
2023-03-17T00:50:55.912Z,6.98
2023-03-17T00:51:36.070Z,6.86
2023-03-17T00:52:16.971Z,6.81
2023-03-17T00:53:06.935Z,6.87
2023-03-17T00:54:00.940Z,6.74
2023-03-17T00:54:54.944Z,6.94
2023-03-17T00:55:48.920Z,6.96
2023-03-17T00:56:42.909Z,6.95
2023-03-17T00:57:36.932Z,6.72
2023-03-17T00:58:34.924Z,6.96
2023-03-17T00:59:09.382Z,6.95
2023-03-17T00:59:55.959Z,6.97
2023-03-17T01:00:36.939Z,6.99
2023-03-17T01:01:24.992Z,6.86
2023-03-17T01:01:59.734Z,6.98
2023-03-17T01:02:47.897Z,6.85
2023-03-17T01:03:21.993Z,6.98
2023-03-17T01:04:02.937Z,6.97
2023-03-17T01:04:49.984Z,6.88
2023-03-17T01:05:32.923Z,6.91
2023-03-17T01:06:18.081Z,7.00
2023-03-17T01:06:59.895Z,6.93
2023-03-17T01:07:39.986Z,7.11
2023-03-17T01:08:20.904Z,7.03
2023-03-17T01:09:01.990Z,6.92
2023-03-17T01:09:41.962Z,6.86
2023-03-17T01:10:31.799Z,6.82
2023-03-17T01:11:12.873Z,7.05
2023-03-17T01:11:53.524Z,6.96
2023-03-17T01:12:34.895Z,6.75
2023-03-17T01:13:28.876Z,6.85
2023-03-17T01:14:25.875Z,6.80
2023-03-17T01:15:06.894Z,7.02
2023-03-17T01:15:54.035Z,7.03
2023-03-17T01:16:35.973Z,6.91
2023-03-17T01:17:23.992Z,6.96
2023-03-17T01:18:05.871Z,6.84
2023-03-17T01:18:47.041Z,7.02
2023-03-17T01:19:27.929Z,6.83
2023-03-17T01:20:16.962Z,6.94
2023-03-17T01:21:11.893Z,7.00
2023-03-17T01:22:05.873Z,6.79
2023-03-17T01:22:59.871Z,6.94
2023-03-17T01:23:54.858Z,6.81
2023-03-17T01:24:49.895Z,6.90
2023-03-17T01:25:37.923Z,6.80
2023-03-17T01:26:12.965Z,7.08
2023-03-17T01:26:59.888Z,6.84
2023-03-17T01:27:34.011Z,6.97
2023-03-17T01:28:24.868Z,6.89
2023-03-17T01:28:59.024Z,7.07
2023-03-17T01:29:45.860Z,6.83
2023-03-17T01:30:33.989Z,6.94
2023-03-17T01:31:13.932Z,6.87
2023-03-17T01:31:54.071Z,6.98
2023-03-17T01:32:34.947Z,6.83
2023-03-17T01:33:16.964Z,7.10
2023-03-17T01:33:57.858Z,6.97
2023-03-17T01:34:39.748Z,6.94
2023-03-17T01:35:20.880Z,7.12
2023-03-17T01:36:00.989Z,6.84
2023-03-17T01:36:41.960Z,6.79
2023-03-17T01:37:22.191Z,7.07
2023-03-17T01:38:03.862Z,7.10
2023-03-17T01:38:47.969Z,6.94
2023-03-17T01:39:28.859Z,6.88
2023-03-17T01:40:09.604Z,6.91
2023-03-17T01:40:56.869Z,6.92
2023-03-17T01:41:48.867Z,6.90
2023-03-17T01:42:42.829Z,6.58
2023-03-17T01:43:42.841Z,6.80
2023-03-17T01:44:37.882Z,6.55
2023-03-17T01:46:23.893Z,6.80
2023-03-17T01:47:10.924Z,6.73
2023-03-17T01:47:45.499Z,6.80
2023-03-17T01:48:33.845Z,6.60
2023-03-17T01:49:40.010Z,6.62
2023-03-17T01:50:27.973Z,6.66
2023-03-17T01:51:01.996Z,6.61
2023-03-17T01:52:12.893Z,6.72
2023-03-17T01:52:48.026Z,6.44
2023-03-17T01:53:34.874Z,6.65
2023-03-17T01:54:14.132Z,6.72
2023-03-17T01:55:08.868Z,6.53
2023-03-17T01:55:43.001Z,6.58
2023-03-17T01:56:30.853Z,6.61
2023-03-17T01:57:22.882Z,6.57
2023-03-17T01:58:16.877Z,6.64
2023-03-17T01:59:13.831Z,6.61
2023-03-17T02:00:14.860Z,6.56
2023-03-17T02:01:08.902Z,6.54
2023-03-17T02:02:06.816Z,6.64
2023-03-17T02:02:51.894Z,6.51
2023-03-17T02:03:33.191Z,6.67
2023-03-17T02:04:14.928Z,6.38
2023-03-17T02:04:58.108Z,6.37
2023-03-17T02:05:39.832Z,6.53
2023-03-17T02:06:19.953Z,6.68
2023-03-17T02:07:00.823Z,6.42
2023-03-17T02:07:40.966Z,6.45
2023-03-17T02:08:22.838Z,6.72
2023-03-17T02:09:03.953Z,6.37
2023-03-17T02:09:44.823Z,6.61
2023-03-17T02:10:28.871Z,6.63
2023-03-17T02:11:11.840Z,6.28
2023-03-17T02:11:52.908Z,6.38
2023-03-17T02:12:35.871Z,6.45
2023-03-17T02:13:17.930Z,6.44
2023-03-17T02:13:58.833Z,6.41
2023-03-17T02:14:38.902Z,6.53
2023-03-17T02:15:19.818Z,6.46
2023-03-17T02:16:00.094Z,6.37
2023-03-17T02:16:40.865Z,6.39
2023-03-17T02:17:21.149Z,6.43
2023-03-17T02:18:01.829Z,6.34
2023-03-17T02:18:41.960Z,6.29
2023-03-17T02:19:21.879Z,6.41
2023-03-17T02:20:03.815Z,5.98
2023-03-17T02:20:44.801Z,6.25
2023-03-17T02:21:45.992Z,6.29
2023-03-17T02:22:26.820Z,6.10
2023-03-17T02:23:07.901Z,6.17
2023-03-17T02:23:48.826Z,6.37
2023-03-17T02:25:06.884Z,6.31
2023-03-17T02:26:01.797Z,6.28
2023-03-17T02:26:57.802Z,6.39
2023-03-17T02:27:57.801Z,6.05
2023-03-17T02:28:52.792Z,6.40
2023-03-17T02:29:52.833Z,6.11
2023-03-17T02:30:34.846Z,6.36
2023-03-17T02:31:15.515Z,6.21
2023-03-17T02:32:03.824Z,6.24
2023-03-17T02:32:38.642Z,6.11
2023-03-17T02:33:25.795Z,6.31
2023-03-17T02:33:59.624Z,6.09
2023-03-17T02:34:47.804Z,6.21
2023-03-17T02:35:21.809Z,6.20
2023-03-17T02:36:03.928Z,6.05
2023-03-17T02:36:38.104Z,6.04
2023-03-17T02:37:13.559Z,6.15
2023-03-17T02:37:54.807Z,6.07
2023-03-17T02:38:29.926Z,6.12
2023-03-17T02:39:04.421Z,6.00
2023-03-17T02:39:44.794Z,6.10
2023-03-17T02:40:19.916Z,6.01
2023-03-17T02:40:53.656Z,6.05
2023-03-17T02:41:34.810Z,6.03
2023-03-17T02:42:08.889Z,5.96
2023-03-17T02:42:43.637Z,6.03
2023-03-17T02:43:24.791Z,5.98
2023-03-17T02:43:58.992Z,6.19
2023-03-17T02:44:32.932Z,6.20
2023-03-17T02:45:15.815Z,5.99
2023-03-17T02:45:50.026Z,6.12
2023-03-17T02:46:23.632Z,6.17
2023-03-17T02:47:05.824Z,6.22
2023-03-17T02:47:39.937Z,6.20
2023-03-17T02:48:13.999Z,6.09
2023-03-17T02:48:54.789Z,6.21
2023-03-17T02:49:28.939Z,5.97
2023-03-17T02:50:02.937Z,5.99
2023-03-17T02:50:43.813Z,6.05
2023-03-17T02:51:19.932Z,6.10
2023-03-17T02:51:53.873Z,6.20
2023-03-17T02:52:34.834Z,5.93
2023-03-17T02:53:09.248Z,6.14
2023-03-17T02:53:43.680Z,6.06
2023-03-17T02:54:24.785Z,6.16
2023-03-17T02:54:58.904Z,5.87
2023-03-17T02:55:32.604Z,5.97
2023-03-17T02:56:13.780Z,6.03
2023-03-17T02:56:47.944Z,5.99
2023-03-17T02:57:22.038Z,6.11
2023-03-17T02:58:02.808Z,6.02
2023-03-17T02:58:36.926Z,6.15
2023-03-17T02:59:11.759Z,6.02
2023-03-17T02:59:52.775Z,6.07
2023-03-17T03:00:28.524Z,5.96
2023-03-17T03:01:03.494Z,6.01
2023-03-17T03:01:45.818Z,5.96
2023-03-17T03:02:45.663Z,5.78
2023-03-17T03:03:32.808Z,5.87
2023-03-17T03:04:26.781Z,5.98
2023-03-17T03:05:21.772Z,5.80
2023-03-17T03:06:15.805Z,5.65
2023-03-17T03:07:09.762Z,5.80
2023-03-17T03:08:03.798Z,5.70
2023-03-17T03:08:50.818Z,5.84
2023-03-17T03:09:25.751Z,5.84
2023-03-17T03:10:13.786Z,5.63
2023-03-17T03:10:47.914Z,5.78
2023-03-17T03:11:35.809Z,5.91
2023-03-17T03:12:11.284Z,5.81
2023-03-17T03:12:58.784Z,5.90
2023-03-17T03:13:38.990Z,5.89
2023-03-17T03:14:19.833Z,5.86
2023-03-17T03:15:00.720Z,5.95
2023-03-17T03:15:41.849Z,5.78
2023-03-17T03:16:22.867Z,5.83
2023-03-17T03:17:02.756Z,5.88
2023-03-17T03:17:42.854Z,5.64
2023-03-17T03:18:22.791Z,5.92
2023-03-17T03:19:02.912Z,5.95
2023-03-17T03:19:42.779Z,5.49
2023-03-17T03:20:24.126Z,5.53
2023-03-17T03:21:04.748Z,5.75
2023-03-17T03:21:46.252Z,5.62
2023-03-17T03:22:26.821Z,5.77
2023-03-17T03:23:06.928Z,5.77
2023-03-17T03:23:46.775Z,5.76
2023-03-17T03:24:27.932Z,5.58
2023-03-17T03:25:07.833Z,5.67
2023-03-17T03:25:48.919Z,5.66
2023-03-17T03:26:29.773Z,5.73
2023-03-17T03:27:10.922Z,5.76
2023-03-17T03:27:50.733Z,5.62
2023-03-17T03:28:31.874Z,5.72
2023-03-17T03:29:11.749Z,5.70
2023-03-17T03:29:51.897Z,5.69
2023-03-17T03:30:33.782Z,5.53
2023-03-17T03:31:14.857Z,5.54
2023-03-17T03:31:54.735Z,5.63
2023-03-17T03:32:35.924Z,5.44
2023-03-17T03:33:16.781Z,5.52
2023-03-17T03:33:56.923Z,5.38
2023-03-17T03:34:36.722Z,5.50
2023-03-17T03:35:16.940Z,5.67
2023-03-17T03:35:56.802Z,5.52
2023-03-17T03:36:37.849Z,5.60
2023-03-17T03:37:17.742Z,5.69
2023-03-17T03:37:57.833Z,5.49
2023-03-17T03:38:38.725Z,5.39
2023-03-17T03:39:19.864Z,5.60
2023-03-17T03:39:59.735Z,5.26
2023-03-17T03:40:41.239Z,5.38
2023-03-17T03:41:21.773Z,5.31
2023-03-17T03:42:01.886Z,5.45
2023-03-17T03:42:41.740Z,5.34
2023-03-17T03:43:23.889Z,5.28
2023-03-17T03:44:04.733Z,5.38
2023-03-17T03:44:45.832Z,5.57
2023-03-17T03:45:33.741Z,5.56
2023-03-17T03:46:07.883Z,5.56
2023-03-17T03:46:47.783Z,5.45
2023-03-17T03:47:27.801Z,5.40
2023-03-17T03:48:08.742Z,5.48
2023-03-17T03:48:49.858Z,5.55
2023-03-17T03:49:30.745Z,5.48
2023-03-17T03:50:11.992Z,5.24
2023-03-17T03:50:52.727Z,5.27
2023-03-17T03:51:33.866Z,5.37
2023-03-17T03:52:14.733Z,5.47
2023-03-17T03:52:56.838Z,5.19
2023-03-17T03:53:37.728Z,5.17
2023-03-17T03:54:17.860Z,5.20
2023-03-17T03:54:58.717Z,5.33
2023-03-17T03:55:38.873Z,5.39
2023-03-17T03:56:19.755Z,5.42
2023-03-17T03:57:00.886Z,5.37
2023-03-17T03:57:41.750Z,5.34
2023-03-17T03:58:21.831Z,5.45
2023-03-17T03:59:02.699Z,5.32
2023-03-17T03:59:42.808Z,5.32
2023-03-17T04:00:24.721Z,5.19
2023-03-17T04:01:06.154Z,5.36
2023-03-17T04:01:47.711Z,5.32
2023-03-17T04:02:27.864Z,5.36
2023-03-17T04:03:08.791Z,5.39
2023-03-17T04:03:48.881Z,5.41
2023-03-17T04:04:29.732Z,5.29
2023-03-17T04:05:13.743Z,5.21
2023-03-17T04:05:54.702Z,5.40
2023-03-17T04:06:34.808Z,5.34
2023-03-17T04:07:15.695Z,5.32
2023-03-17T04:07:56.036Z,5.30
2023-03-17T04:08:38.730Z,5.49
2023-03-17T04:09:19.837Z,5.53
2023-03-17T04:10:00.721Z,5.27
2023-03-17T04:10:41.805Z,5.53
2023-03-17T04:11:22.716Z,5.59
2023-03-17T04:12:02.881Z,5.58
2023-03-17T04:12:43.674Z,5.58
2023-03-17T04:13:23.801Z,5.33
2023-03-17T04:14:04.740Z,5.36
2023-03-17T04:14:44.846Z,5.55
2023-03-17T04:15:26.752Z,5.49
2023-03-17T04:16:06.812Z,5.39
2023-03-17T04:16:47.700Z,5.52
2023-03-17T04:17:28.797Z,5.46
2023-03-17T04:18:09.687Z,5.44
2023-03-17T04:18:49.896Z,5.13
2023-03-17T04:19:30.711Z,5.44
2023-03-17T04:20:11.930Z,5.25
2023-03-17T04:20:52.706Z,5.29
2023-03-17T04:21:32.840Z,5.44
2023-03-17T04:22:15.699Z,5.17
2023-03-17T04:22:56.164Z,5.37
2023-03-17T04:23:37.711Z,5.25
2023-03-17T04:24:17.793Z,5.17
2023-03-17T04:24:58.765Z,5.36
2023-03-17T04:25:39.034Z,5.09
2023-03-17T04:26:19.681Z,5.37
2023-03-17T04:27:01.030Z,5.17
2023-03-17T04:27:41.707Z,5.10
2023-03-17T04:28:22.515Z,5.30
2023-03-17T04:29:03.694Z,5.10
2023-03-17T04:29:43.956Z,5.35
2023-03-17T04:30:24.746Z,5.32
2023-03-17T04:31:04.810Z,5.06
2023-03-17T04:31:46.752Z,5.35
2023-03-17T04:32:27.346Z,5.11
2023-03-17T04:33:08.786Z,5.27
2023-03-17T04:33:48.833Z,5.30
2023-03-17T04:34:29.674Z,5.16
2023-03-17T04:35:10.968Z,5.31
2023-03-17T04:35:51.752Z,5.07
2023-03-17T04:36:31.785Z,5.09
2023-03-17T04:37:12.686Z,5.00
2023-03-17T04:37:53.773Z,5.36
2023-03-17T04:38:34.677Z,5.27
2023-03-17T04:39:14.796Z,5.20
2023-03-17T04:39:55.670Z,5.33
2023-03-17T04:40:35.898Z,5.11
2023-03-17T04:41:16.705Z,5.21
2023-03-17T04:41:56.801Z,5.39
2023-03-17T04:42:38.685Z,5.30
2023-03-17T04:43:18.792Z,5.27
2023-03-17T04:43:59.685Z,5.36
2023-03-17T04:44:39.808Z,5.40
2023-03-17T04:45:21.694Z,5.35
2023-03-17T04:46:01.853Z,5.07
2023-03-17T04:46:42.709Z,5.36
2023-03-17T04:47:22.796Z,5.34
2023-03-17T04:48:03.704Z,5.39
2023-03-17T04:48:43.795Z,5.49
2023-03-17T04:49:24.659Z,5.42
2023-03-17T04:50:04.847Z,5.32
2023-03-17T04:50:45.653Z,5.50
2023-03-17T04:51:25.797Z,5.30
2023-03-17T04:52:05.656Z,5.44
2023-03-17T04:52:45.754Z,5.24
2023-03-17T04:53:26.695Z,5.44
2023-03-17T04:54:08.298Z,5.38
2023-03-17T04:54:49.700Z,5.47
2023-03-17T04:55:29.810Z,5.42
2023-03-17T04:56:10.705Z,5.42
2023-03-17T04:56:50.788Z,5.49
2023-03-17T04:57:31.701Z,5.39
2023-03-17T04:58:15.461Z,5.49
2023-03-17T04:59:01.677Z,5.36
2023-03-17T04:59:41.794Z,5.16
2023-03-17T05:00:22.652Z,5.49
2023-03-17T05:01:03.671Z,5.24
2023-03-17T05:01:44.661Z,5.16
2023-03-17T05:02:26.302Z,5.44
2023-03-17T05:03:23.890Z,5.37
2023-03-17T05:04:06.803Z,5.27
2023-03-17T05:04:47.660Z,5.15
2023-03-17T05:05:27.821Z,5.23
2023-03-17T05:06:09.666Z,5.48
2023-03-17T05:06:49.808Z,5.54
2023-03-17T05:07:32.672Z,5.24
2023-03-17T05:08:20.681Z,5.54
2023-03-17T05:09:14.647Z,5.39
2023-03-17T05:10:08.660Z,5.39
2023-03-17T05:11:02.661Z,5.40
2023-03-17T05:11:56.673Z,5.32
2023-03-17T05:12:51.653Z,5.39
2023-03-17T05:13:38.669Z,5.36
2023-03-17T05:14:12.802Z,5.23
2023-03-17T05:14:59.657Z,5.37
2023-03-17T05:15:33.773Z,5.29
2023-03-17T05:16:20.666Z,5.24
2023-03-17T05:16:55.853Z,5.05
2023-03-17T05:17:42.621Z,5.03
2023-03-17T05:18:16.729Z,4.94
2023-03-17T05:19:03.675Z,4.99
2023-03-17T05:19:37.748Z,5.20
2023-03-17T05:20:24.650Z,5.20
2023-03-17T05:20:58.754Z,5.14
2023-03-17T05:21:46.652Z,5.07
2023-03-17T05:22:20.772Z,5.25
2023-03-17T05:23:07.636Z,5.23
2023-03-17T05:23:41.873Z,5.22
2023-03-17T05:24:28.630Z,5.34
2023-03-17T05:25:03.844Z,5.17
2023-03-17T05:25:51.623Z,5.13
2023-03-17T05:26:25.993Z,5.16
2023-03-17T05:27:12.622Z,5.07
2023-03-17T05:27:46.749Z,5.30
2023-03-17T05:28:34.635Z,5.31
2023-03-17T05:29:09.020Z,5.38
2023-03-17T05:29:49.632Z,5.32
2023-03-17T05:30:30.499Z,5.45
2023-03-17T05:31:11.678Z,5.33
2023-03-17T05:31:52.753Z,5.46
2023-03-17T05:32:33.648Z,5.44
2023-03-17T05:33:14.546Z,5.45
2023-03-17T05:33:55.624Z,5.37
2023-03-17T05:34:35.756Z,5.63
2023-03-17T05:35:16.704Z,5.68
2023-03-17T05:35:58.746Z,5.60
2023-03-17T05:36:39.610Z,5.55
2023-03-17T05:37:20.949Z,5.65
2023-03-17T05:38:01.589Z,5.76
2023-03-17T05:38:42.255Z,5.78
2023-03-17T05:39:23.611Z,5.60
2023-03-17T05:40:04.743Z,5.58
2023-03-17T05:40:45.667Z,5.83
2023-03-17T05:41:26.535Z,5.78
2023-03-17T05:42:07.632Z,5.86
2023-03-17T05:42:47.845Z,5.86
2023-03-17T05:43:28.592Z,5.82
2023-03-17T05:44:08.822Z,5.64
2023-03-17T05:44:49.634Z,5.60
2023-03-17T05:45:30.431Z,5.80
2023-03-17T05:46:12.707Z,5.72
2023-03-17T05:46:52.752Z,5.76
2023-03-17T05:47:33.691Z,5.64
2023-03-17T05:48:14.713Z,5.78
2023-03-17T05:48:55.704Z,5.81
2023-03-17T05:49:35.804Z,5.63
2023-03-17T05:50:18.582Z,5.83
2023-03-17T05:50:58.722Z,5.79
2023-03-17T05:51:39.664Z,5.83
2023-03-17T05:52:19.949Z,5.85
2023-03-17T05:53:00.574Z,5.77
2023-03-17T05:53:41.650Z,5.85
2023-03-17T05:54:22.602Z,5.71
2023-03-17T05:55:02.949Z,5.90
2023-03-17T05:55:43.588Z,5.82
2023-03-17T05:56:25.130Z,5.70
2023-03-17T05:57:06.593Z,5.80
2023-03-17T05:57:47.720Z,5.93
2023-03-17T05:58:28.593Z,5.84
2023-03-17T05:59:09.439Z,5.87
2023-03-17T05:59:50.620Z,5.85
2023-03-17T06:00:30.877Z,5.73
2023-03-17T06:01:11.566Z,5.78
2023-03-17T06:01:52.011Z,5.85
2023-03-17T06:02:32.648Z,5.84
2023-03-17T06:03:12.730Z,5.67
2023-03-17T06:03:53.598Z,5.80
2023-03-17T06:04:33.711Z,5.79
2023-03-17T06:05:15.621Z,5.91
2023-03-17T06:05:55.697Z,5.84
2023-03-17T06:06:35.647Z,5.98
2023-03-17T06:07:18.669Z,5.93
2023-03-17T06:07:59.649Z,5.98
2023-03-17T06:08:39.707Z,5.88
2023-03-17T06:09:20.648Z,6.03
2023-03-17T06:10:02.297Z,6.02
2023-03-17T06:10:45.572Z,6.04
2023-03-17T06:11:26.713Z,6.02
2023-03-17T06:12:07.664Z,6.03
2023-03-17T06:12:48.727Z,5.91
2023-03-17T06:13:32.602Z,5.84
2023-03-17T06:14:14.769Z,6.08
2023-03-17T06:14:56.581Z,6.13
2023-03-17T06:15:39.866Z,6.09
2023-03-17T06:16:20.576Z,6.01
2023-03-17T06:17:01.718Z,6.04
2023-03-17T06:17:43.586Z,6.08
2023-03-17T06:18:25.958Z,6.00
2023-03-17T06:19:06.690Z,5.95
2023-03-17T06:19:50.687Z,6.03
2023-03-17T06:20:32.640Z,6.10
2023-03-17T06:21:12.798Z,5.94
2023-03-17T06:21:53.560Z,6.05
2023-03-17T06:22:34.676Z,6.20
2023-03-17T06:23:15.559Z,6.30
2023-03-17T06:23:55.732Z,6.40
2023-03-17T06:24:36.589Z,6.16
2023-03-17T06:25:18.044Z,6.30
2023-03-17T06:25:58.619Z,6.44
2023-03-17T06:26:38.680Z,6.35
2023-03-17T06:27:20.561Z,6.42
2023-03-17T06:28:03.548Z,6.29
2023-03-17T06:28:44.544Z,6.39
2023-03-17T06:29:25.733Z,6.23
2023-03-17T06:30:06.565Z,6.37
2023-03-17T06:30:40.943Z,6.34
2023-03-17T06:31:28.633Z,6.46
2023-03-17T06:32:19.189Z,6.42
2023-03-17T06:33:08.740Z,6.35
2023-03-17T06:33:42.506Z,6.39
2023-03-17T06:34:31.570Z,6.51
2023-03-17T06:35:13.605Z,6.49
2023-03-17T06:35:53.710Z,6.57
2023-03-17T06:36:35.911Z,6.59
2023-03-17T06:37:17.778Z,6.54
2023-03-17T06:37:58.567Z,6.62
2023-03-17T06:38:40.058Z,6.54
2023-03-17T06:39:22.612Z,6.65
2023-03-17T06:40:04.396Z,6.69
2023-03-17T06:40:44.599Z,6.67
2023-03-17T06:41:25.651Z,6.71
2023-03-17T06:42:06.374Z,6.53
2023-03-17T06:42:46.747Z,6.43
2023-03-17T06:43:28.548Z,6.49
2023-03-17T06:44:08.700Z,6.49
2023-03-17T06:44:48.602Z,6.50
2023-03-17T06:45:30.025Z,6.70
2023-03-17T06:46:11.585Z,6.51
2023-03-17T06:46:52.669Z,6.71
2023-03-17T06:47:32.549Z,6.70
2023-03-17T06:48:13.667Z,6.76
2023-03-17T06:48:54.516Z,6.61
2023-03-17T06:49:36.799Z,6.71
2023-03-17T06:50:19.564Z,6.67
2023-03-17T06:50:59.640Z,6.75
2023-03-17T06:51:40.560Z,6.76
2023-03-17T06:52:20.835Z,6.69
2023-03-17T06:53:01.540Z,6.81
2023-03-17T06:53:42.649Z,6.71
2023-03-17T06:54:24.544Z,6.79
2023-03-17T06:55:04.861Z,6.97
2023-03-17T06:55:45.524Z,6.96
2023-03-17T06:56:30.083Z,6.94
2023-03-17T06:57:10.546Z,6.81
2023-03-17T06:57:52.409Z,6.92
2023-03-17T06:58:32.526Z,6.92
2023-03-17T06:59:13.645Z,6.99
2023-03-17T06:59:53.537Z,6.94
2023-03-17T07:00:33.631Z,7.02
2023-03-17T07:01:14.549Z,7.05
2023-03-17T07:01:55.656Z,7.02
2023-03-17T07:02:35.529Z,7.00
2023-03-17T07:03:15.868Z,7.07
2023-03-17T07:03:56.542Z,7.27
2023-03-17T07:04:37.982Z,7.25
2023-03-17T07:05:20.549Z,7.14
2023-03-17T07:06:01.667Z,7.18
2023-03-17T07:06:42.517Z,7.13
2023-03-17T07:07:24.849Z,7.32
2023-03-17T07:08:06.525Z,7.31
2023-03-17T07:08:47.614Z,7.38
2023-03-17T07:09:28.691Z,7.53
2023-03-17T07:10:10.726Z,7.50
2023-03-17T07:10:52.547Z,7.42
2023-03-17T07:11:32.784Z,7.45
2023-03-17T07:12:13.525Z,7.48
2023-03-17T07:12:53.857Z,7.70
2023-03-17T07:13:34.530Z,7.66
2023-03-17T07:14:15.663Z,7.65
2023-03-17T07:14:56.571Z,7.57
2023-03-17T07:15:37.312Z,7.77
2023-03-17T07:16:20.541Z,7.48
2023-03-17T07:17:00.636Z,7.61
2023-03-17T07:17:40.523Z,7.67
2023-03-17T07:18:21.684Z,7.66
2023-03-17T07:19:02.565Z,7.64
2023-03-17T07:19:42.673Z,7.65
2023-03-17T07:20:23.490Z,7.60
2023-03-17T07:21:07.993Z,7.79
2023-03-17T07:21:48.536Z,7.68
2023-03-17T07:22:29.708Z,7.82
2023-03-17T07:23:09.537Z,7.66
2023-03-17T07:23:49.694Z,7.81
2023-03-17T07:24:30.529Z,7.62
2023-03-17T07:25:11.601Z,7.62
2023-03-17T07:25:53.488Z,7.70
2023-03-17T07:26:34.638Z,7.73
2023-03-17T07:27:15.497Z,7.66
2023-03-17T07:27:56.691Z,7.67
2023-03-17T07:28:37.487Z,7.67
2023-03-17T07:29:17.667Z,7.70
2023-03-17T07:29:58.548Z,7.84
2023-03-17T07:30:40.809Z,7.72
2023-03-17T07:31:21.536Z,7.92
2023-03-17T07:32:02.077Z,7.72
2023-03-17T07:32:43.528Z,7.86
2023-03-17T07:33:25.741Z,7.89
2023-03-17T07:34:05.508Z,7.80
2023-03-17T07:34:46.592Z,7.97
2023-03-17T07:35:26.555Z,7.87
2023-03-17T07:36:07.252Z,7.95
2023-03-17T07:36:48.553Z,8.09
2023-03-17T07:37:29.727Z,8.03
2023-03-17T07:38:09.530Z,7.91
2023-03-17T07:38:50.601Z,8.05
2023-03-17T07:39:30.476Z,8.16
2023-03-17T07:40:12.619Z,8.13
2023-03-17T07:40:55.561Z,8.21
2023-03-17T07:41:36.766Z,8.16
2023-03-17T07:42:21.486Z,8.06
2023-03-17T07:43:02.801Z,8.27
2023-03-17T07:43:44.481Z,8.23
2023-03-17T07:44:25.925Z,8.24
2023-03-17T07:45:06.459Z,8.27
2023-03-17T07:45:47.047Z,8.37
2023-03-17T07:46:27.515Z,8.41
2023-03-17T07:47:08.553Z,8.37
2023-03-17T07:47:55.473Z,8.24
2023-03-17T07:48:30.818Z,8.39
2023-03-17T07:49:20.926Z,8.41
2023-03-17T07:50:01.789Z,8.50
2023-03-17T07:50:49.480Z,8.58
2023-03-17T07:51:34.492Z,8.51
2023-03-17T07:52:28.451Z,8.50
2023-03-17T07:53:22.483Z,8.61
2023-03-17T07:54:16.519Z,8.55
2023-03-17T07:55:10.437Z,8.49
2023-03-17T07:56:04.476Z,8.56
2023-03-17T07:56:51.517Z,8.58
2023-03-17T07:57:25.692Z,8.48
2023-03-17T07:58:15.765Z,8.64
2023-03-17T07:58:50.773Z,8.56
2023-03-17T07:59:38.442Z,8.57
2023-03-17T08:00:15.563Z,8.59
2023-03-17T08:01:04.456Z,8.62
2023-03-17T08:01:38.771Z,8.67
2023-03-17T08:02:23.553Z,8.60
2023-03-17T08:03:10.331Z,8.74
2023-03-17T08:03:51.515Z,8.80
2023-03-17T08:04:31.607Z,8.65
2023-03-17T08:05:14.526Z,8.70
2023-03-17T08:06:00.650Z,8.84
2023-03-17T08:06:42.452Z,8.76
2023-03-17T08:07:22.573Z,8.84
2023-03-17T08:08:03.480Z,8.59
2023-03-17T08:08:44.572Z,8.78
2023-03-17T08:09:25.465Z,8.72
2023-03-17T08:10:05.558Z,8.65
2023-03-17T08:10:46.470Z,8.81
2023-03-17T08:11:29.442Z,8.77
2023-03-17T08:12:11.452Z,8.46
2023-03-17T08:12:53.379Z,8.68
2023-03-17T08:13:33.479Z,8.76
2023-03-17T08:14:14.538Z,8.59
2023-03-17T08:14:55.446Z,8.42
2023-03-17T08:15:36.292Z,8.41
2023-03-17T08:16:17.498Z,8.62
2023-03-17T08:16:58.617Z,8.49
2023-03-17T08:17:39.436Z,8.47
2023-03-17T08:18:19.537Z,8.64
2023-03-17T08:19:00.443Z,8.65
2023-03-17T08:19:41.131Z,8.35
2023-03-17T08:20:23.436Z,8.42
2023-03-17T08:21:03.558Z,8.58
2023-03-17T08:21:44.477Z,8.48
2023-03-17T08:22:24.848Z,8.45
2023-03-17T08:23:05.460Z,8.28
2023-03-17T08:23:45.620Z,8.28
2023-03-17T08:24:26.452Z,8.15
2023-03-17T08:25:06.668Z,8.22
2023-03-17T08:25:47.428Z,8.37
2023-03-17T08:26:27.803Z,8.20
2023-03-17T08:27:08.436Z,8.37
2023-03-17T08:27:49.012Z,8.09
2023-03-17T08:28:30.475Z,8.21
2023-03-17T08:29:10.545Z,8.27
2023-03-17T08:29:51.488Z,8.30
2023-03-17T08:30:33.703Z,8.12
2023-03-17T08:31:21.473Z,8.09
2023-03-17T08:32:01.595Z,8.12
2023-03-17T08:32:42.417Z,8.18
2023-03-17T08:33:23.556Z,8.32
2023-03-17T08:34:04.410Z,8.34
2023-03-17T08:34:46.205Z,8.51
2023-03-17T08:35:27.479Z,8.48
2023-03-17T08:36:12.804Z,8.49
2023-03-17T08:36:53.492Z,8.55
2023-03-17T08:37:33.639Z,8.56
2023-03-17T08:38:14.428Z,8.62
2023-03-17T08:38:55.885Z,8.55
2023-03-17T08:39:37.408Z,8.55
2023-03-17T08:40:24.564Z,8.66
2023-03-17T08:41:18.483Z,8.68
2023-03-17T08:41:58.544Z,8.79
2023-03-17T08:42:38.436Z,8.80
2023-03-17T08:43:18.698Z,8.92
2023-03-17T08:43:59.412Z,8.82
2023-03-17T08:44:39.526Z,8.91
2023-03-17T08:45:22.405Z,9.06
2023-03-17T08:46:41.424Z,8.88
2023-03-17T08:47:36.484Z,9.00
2023-03-17T08:48:30.411Z,8.95
2023-03-17T08:49:25.414Z,8.93
2023-03-17T08:50:32.582Z,9.23
2023-03-17T08:51:27.413Z,9.25
2023-03-17T08:52:09.465Z,9.23
2023-03-17T08:52:49.515Z,9.14
2023-03-17T08:53:30.409Z,9.10
2023-03-17T08:54:11.528Z,9.13
2023-03-17T08:54:53.400Z,9.08
2023-03-17T08:55:33.576Z,9.15
2023-03-17T08:56:14.389Z,9.19
2023-03-17T08:56:54.539Z,8.96
2023-03-17T08:57:35.414Z,9.03
2023-03-17T08:58:15.571Z,9.26
2023-03-17T08:58:57.391Z,9.22
2023-03-17T08:59:37.729Z,9.36
2023-03-17T09:00:21.409Z,9.49
2023-03-17T09:01:01.587Z,9.50
2023-03-17T09:01:42.484Z,9.50
2023-03-17T09:03:02.464Z,9.55
2023-03-17T09:03:57.393Z,9.70
2023-03-17T09:04:52.397Z,9.63
2023-03-17T09:05:46.396Z,9.76
2023-03-17T09:06:51.856Z,9.66
2023-03-17T09:07:56.422Z,9.75
2023-03-17T09:08:37.408Z,9.91
2023-03-17T09:09:17.551Z,10.03
2023-03-17T09:09:58.368Z,10.03
2023-03-17T09:10:38.492Z,10.04
2023-03-17T09:11:23.372Z,9.87
2023-03-17T09:12:04.411Z,9.88
2023-03-17T09:12:46.392Z,9.95
2023-03-17T09:13:28.703Z,10.00
2023-03-17T09:14:09.467Z,9.95
2023-03-17T09:14:50.392Z,10.03
2023-03-17T09:15:31.571Z,9.84
2023-03-17T09:16:14.506Z,10.06
2023-03-17T09:16:55.383Z,10.16
2023-03-17T09:17:36.020Z,10.17
2023-03-17T09:18:17.382Z,10.27
2023-03-17T09:18:57.479Z,10.05
2023-03-17T09:19:39.374Z,10.24
2023-03-17T09:20:20.499Z,10.29
2023-03-17T09:21:01.378Z,10.18
2023-03-17T09:21:41.595Z,10.19
2023-03-17T09:22:25.369Z,10.23
2023-03-17T09:23:07.913Z,10.22
2023-03-17T09:23:49.372Z,10.31
2023-03-17T09:24:29.496Z,10.12
2023-03-17T09:25:10.421Z,10.21
2023-03-17T09:25:50.747Z,10.23
2023-03-17T09:26:32.409Z,10.16
2023-03-17T09:27:12.584Z,10.20
2023-03-17T09:27:53.394Z,10.07
2023-03-17T09:28:33.888Z,10.00
2023-03-17T09:29:14.426Z,10.03
2023-03-17T09:29:54.500Z,10.24